createdAt,value
2017-07-08T00:01:33.142Z,23.93
2017-07-08T00:04:00.543Z,25.10
2017-07-08T00:06:27.938Z,25.90
2017-07-08T00:08:55.353Z,25.27
2017-07-08T00:11:22.757Z,25.20
2017-07-08T00:13:50.164Z,21.37
2017-07-08T00:16:17.560Z,22.80
2017-07-08T00:18:44.973Z,21.23
2017-07-08T00:21:12.375Z,23.43
2017-07-08T00:23:39.788Z,22.20
2017-07-08T00:26:07.192Z,19.63
2017-07-08T00:28:34.603Z,20.13
2017-07-08T00:31:02.031Z,21.27
2017-07-08T00:33:29.675Z,21.03
2017-07-08T00:35:57.092Z,26.10
2017-07-08T00:38:24.501Z,21.13
2017-07-08T00:40:51.903Z,26.37
2017-07-08T00:43:19.304Z,20.13
2017-07-08T00:45:46.699Z,22.50
2017-07-08T00:48:14.419Z,23.77
2017-07-08T00:50:41.835Z,19.13
2017-07-08T00:53:09.245Z,24.87
2017-07-08T00:55:36.652Z,27.57
2017-07-08T00:58:04.052Z,31.93
2017-07-08T01:00:31.460Z,23.87
2017-07-08T01:02:58.862Z,27.70
2017-07-08T01:05:26.259Z,30.83
2017-07-08T01:07:53.667Z,23.33
2017-07-08T01:10:21.068Z,21.83
2017-07-08T01:12:48.472Z,27.90
2017-07-08T01:15:15.876Z,29.70
2017-07-08T01:17:43.589Z,27.60
2017-07-08T01:20:10.987Z,24.43
2017-07-08T01:22:38.382Z,25.40
2017-07-08T01:25:05.785Z,29.37
2017-07-08T01:27:33.197Z,23.43
2017-07-08T01:30:00.609Z,22.83
2017-07-08T01:32:28.000Z,22.93
2017-07-08T01:34:55.617Z,21.67
2017-07-08T01:37:23.011Z,23.13
2017-07-08T01:39:50.411Z,24.00
2017-07-08T01:42:17.808Z,23.07
2017-07-08T01:44:45.508Z,20.33
2017-07-08T01:47:12.907Z,27.60
2017-07-08T01:49:40.317Z,30.87
2017-07-08T01:52:07.716Z,25.40
2017-07-08T01:54:35.120Z,27.40
2017-07-08T01:57:02.548Z,25.00
2017-07-08T01:59:29.951Z,30.90
2017-07-08T02:01:57.388Z,27.33
2017-07-08T02:04:24.791Z,26.97
2017-07-08T02:06:52.189Z,28.83
2017-07-08T02:09:19.600Z,26.57
2017-07-08T02:11:47.006Z,25.67
2017-07-08T02:14:14.407Z,31.23
2017-07-08T02:16:41.803Z,25.90
2017-07-08T02:19:09.216Z,29.03
2017-07-08T02:21:36.609Z,31.10
2017-07-08T02:24:04.044Z,28.97
2017-07-08T02:26:31.436Z,28.83
2017-07-08T02:28:58.855Z,28.90
2017-07-08T02:31:26.258Z,26.90
2017-07-08T02:33:53.655Z,28.63
2017-07-08T02:36:21.060Z,29.33
2017-07-08T02:38:48.460Z,28.10
2017-07-08T02:41:15.865Z,30.50
2017-07-08T02:43:43.263Z,30.77
2017-07-08T02:46:10.663Z,35.93
2017-07-08T02:48:38.070Z,28.17
2017-07-08T02:51:05.474Z,35.20
2017-07-08T02:53:32.871Z,30.53
2017-07-08T02:56:00.283Z,29.67
2017-07-08T02:58:27.695Z,30.23
2017-07-08T03:00:55.327Z,34.13
2017-07-08T03:03:22.723Z,37.60
2017-07-08T03:05:50.139Z,29.90
2017-07-08T03:08:17.542Z,36.57
2017-07-08T03:10:44.939Z,31.10
2017-07-08T03:13:12.338Z,43.00
2017-07-08T03:15:39.747Z,34.87
2017-07-08T03:18:07.145Z,36.10
2017-07-08T03:20:34.547Z,34.90
2017-07-08T03:23:01.949Z,39.57
2017-07-08T03:25:29.347Z,50.73
2017-07-08T03:27:56.752Z,38.80
2017-07-08T03:30:24.159Z,50.53
2017-07-08T03:32:51.555Z,51.67
2017-07-08T03:35:18.955Z,51.63
2017-07-08T03:37:46.355Z,48.33
2017-07-08T03:40:13.764Z,56.03
2017-07-08T03:42:41.159Z,51.30
2017-07-08T03:45:08.828Z,58.20
2017-07-08T03:47:36.227Z,57.93
2017-07-08T03:50:03.622Z,62.47
2017-07-08T03:52:31.046Z,49.30
2017-07-08T03:54:58.439Z,66.73
2017-07-08T03:57:25.854Z,58.40
2017-07-08T03:59:53.252Z,56.27
2017-07-08T04:02:20.663Z,61.53
2017-07-08T04:04:48.061Z,59.33
2017-07-08T04:07:15.464Z,46.97
2017-07-08T04:09:42.875Z,55.33
2017-07-08T04:12:10.276Z,60.37
2017-07-08T04:14:37.682Z,54.43
2017-07-08T04:17:05.092Z,55.43
2017-07-08T04:19:32.493Z,63.63
2017-07-08T04:21:59.899Z,57.40
2017-07-08T04:24:27.307Z,54.00
2017-07-08T04:26:54.713Z,51.50
2017-07-08T04:29:22.119Z,58.97
2017-07-08T04:31:49.527Z,61.63
2017-07-08T04:34:16.929Z,60.23
2017-07-08T04:36:44.364Z,54.90
2017-07-08T04:39:11.759Z,62.60
2017-07-08T04:41:39.176Z,58.93
2017-07-08T04:44:06.636Z,46.03
2017-07-08T04:46:33.983Z,54.57
2017-07-08T04:49:01.383Z,61.00
2017-07-08T04:51:28.787Z,55.73
2017-07-08T04:53:56.191Z,54.00
2017-07-08T04:56:23.611Z,68.43
2017-07-08T04:58:51.005Z,57.80
2017-07-08T05:01:18.411Z,68.07
2017-07-08T05:03:45.815Z,68.03
2017-07-08T05:06:13.219Z,49.77
2017-07-08T05:08:40.630Z,70.00
2017-07-08T05:11:08.032Z,68.53
2017-07-08T05:13:35.440Z,69.60
2017-07-08T05:16:02.845Z,81.30
2017-07-08T05:18:30.252Z,81.97
2017-07-08T05:20:57.651Z,88.70
2017-07-08T05:23:25.059Z,83.53
2017-07-08T05:25:52.460Z,73.50
2017-07-08T05:28:19.868Z,72.27
2017-07-08T05:30:47.271Z,85.30
2017-07-08T05:33:14.675Z,78.67
2017-07-08T05:35:42.079Z,84.53
2017-07-08T05:38:09.479Z,80.20
2017-07-08T05:40:36.875Z,63.63
2017-07-08T05:43:04.291Z,88.47
2017-07-08T05:45:31.720Z,80.07
2017-07-08T05:47:59.095Z,90.90
2017-07-08T05:50:26.495Z,65.67
2017-07-08T05:52:53.935Z,79.47
2017-07-08T05:55:21.334Z,89.07
2017-07-08T05:57:48.745Z,76.73
2017-07-08T06:00:16.139Z,86.00
2017-07-08T06:02:43.572Z,90.00
2017-07-08T06:05:10.967Z,89.33
2017-07-08T06:07:38.371Z,95.20
2017-07-08T06:10:05.771Z,78.77
2017-07-08T06:12:33.174Z,75.00
2017-07-08T06:15:00.575Z,72.93
2017-07-08T06:17:27.980Z,86.03
2017-07-08T06:19:55.391Z,80.90
2017-07-08T06:22:22.787Z,73.00
2017-07-08T06:24:50.242Z,80.07
2017-07-08T06:27:17.589Z,80.50
2017-07-08T06:32:43.167Z,85.67
2017-07-08T06:35:10.572Z,71.33
2017-07-08T06:37:42.997Z,69.43
2017-07-08T06:40:10.398Z,72.70
2017-07-08T06:42:37.800Z,76.63
2017-07-08T06:45:05.207Z,64.37
2017-07-08T06:47:32.607Z,70.13
2017-07-08T06:50:00.795Z,79.20
2017-07-08T06:52:28.228Z,70.77
2017-07-08T06:54:55.707Z,70.47
2017-07-08T06:57:23.104Z,65.73
2017-07-08T06:59:50.511Z,74.60
2017-07-08T07:02:17.907Z,82.47
2017-07-08T07:04:45.312Z,66.23
2017-07-08T07:07:12.855Z,72.87
2017-07-08T07:09:40.274Z,68.50
2017-07-08T07:12:08.025Z,78.20
2017-07-08T07:14:35.709Z,68.00
2017-07-08T07:17:03.108Z,83.50
2017-07-08T07:19:30.516Z,62.40
2017-07-08T07:21:57.916Z,58.40
2017-07-08T07:24:25.328Z,75.23
2017-07-08T07:26:52.737Z,65.53
2017-07-08T07:29:20.145Z,71.67
2017-07-08T07:31:47.546Z,65.53
2017-07-08T07:34:14.951Z,56.10
2017-07-08T07:36:42.351Z,57.80
2017-07-08T07:39:09.775Z,57.70
2017-07-08T07:41:37.171Z,49.67
2017-07-08T07:44:04.593Z,56.27
2017-07-08T07:46:31.991Z,59.63
2017-07-08T07:48:59.603Z,53.13
2017-07-08T07:51:27.006Z,49.70
2017-07-08T07:53:54.399Z,50.70
2017-07-08T07:56:21.799Z,45.50
2017-07-08T07:58:49.200Z,46.27
2017-07-08T08:01:16.607Z,42.13
2017-07-08T08:06:17.941Z,41.57
2017-07-08T08:08:45.336Z,43.07
2017-07-08T08:11:12.739Z,39.87
2017-07-08T08:13:40.136Z,38.10
2017-07-08T08:16:07.539Z,28.63
2017-07-08T08:18:34.935Z,32.03
2017-07-08T08:21:02.348Z,31.33
2017-07-08T08:23:29.746Z,32.73
2017-07-08T08:25:57.144Z,27.37
2017-07-08T08:28:24.559Z,24.73
2017-07-08T08:30:51.973Z,24.00
2017-07-08T08:33:19.372Z,22.67
2017-07-08T08:35:46.776Z,21.17
2017-07-08T08:38:14.619Z,18.80
2017-07-08T08:40:42.509Z,28.90
2017-07-08T08:43:10.354Z,20.90
2017-07-08T08:45:38.151Z,22.43
2017-07-08T08:48:06.036Z,20.50
2017-07-08T08:50:33.732Z,18.53
2017-07-08T08:53:01.135Z,17.43
2017-07-08T08:55:28.553Z,19.40
2017-07-08T08:57:55.939Z,13.87
2017-07-08T09:00:23.371Z,14.57
2017-07-08T09:02:50.766Z,20.47
2017-07-08T09:05:18.182Z,15.77
2017-07-08T09:07:45.594Z,16.57
2017-07-08T09:10:12.987Z,12.43
2017-07-08T09:12:40.395Z,10.47
2017-07-08T09:15:07.791Z,10.07
2017-07-08T09:17:35.191Z,9.17
2017-07-08T09:20:02.588Z,8.27
2017-07-08T09:22:29.982Z,7.70
2017-07-08T09:24:57.379Z,7.70
2017-07-08T09:27:24.778Z,6.53
2017-07-08T09:29:52.176Z,8.80
2017-07-08T09:32:19.578Z,5.60
2017-07-08T09:34:51.135Z,8.27
2017-07-08T09:37:18.527Z,9.33
2017-07-08T09:39:45.915Z,5.20
2017-07-08T09:42:13.523Z,4.23
2017-07-08T09:44:40.941Z,9.30
2017-07-08T09:47:08.556Z,4.53
2017-07-08T09:49:35.958Z,6.07
2017-07-08T09:52:03.354Z,8.17
2017-07-08T09:54:30.782Z,7.33
2017-07-08T09:56:58.192Z,5.80
2017-07-08T09:59:25.651Z,5.83
2017-07-08T10:01:53.056Z,8.50
2017-07-08T10:04:20.452Z,5.50
2017-07-08T10:06:47.844Z,6.13
2017-07-08T10:09:15.239Z,7.03
2017-07-08T10:11:42.631Z,8.90
2017-07-08T10:14:10.028Z,8.33
2017-07-08T10:16:37.423Z,6.73
2017-07-08T10:19:04.823Z,8.30
2017-07-08T10:21:32.211Z,6.53
2017-07-08T10:23:59.829Z,6.40
2017-07-08T10:26:27.220Z,5.50
2017-07-08T10:28:54.615Z,5.30
2017-07-08T10:31:22.010Z,9.93
2017-07-08T10:33:49.421Z,5.63
2017-07-08T10:36:16.816Z,11.23
2017-07-08T10:38:44.220Z,4.80
2017-07-08T10:41:11.820Z,6.40
2017-07-08T10:43:39.219Z,6.00
2017-07-08T10:46:06.607Z,5.83
2017-07-08T10:48:34.008Z,6.00
2017-07-08T10:51:01.403Z,4.97
2017-07-08T10:53:28.803Z,5.23
2017-07-08T10:55:56.195Z,8.47
2017-07-08T10:58:23.592Z,7.77
2017-07-08T11:00:50.978Z,6.27
2017-07-08T11:03:18.687Z,8.57
2017-07-08T11:05:46.095Z,10.37
2017-07-08T11:08:13.496Z,9.97
2017-07-08T11:10:40.895Z,6.80
2017-07-08T11:13:08.292Z,5.80
2017-07-08T11:15:35.685Z,6.67
2017-07-08T11:18:03.083Z,12.20
2017-07-08T11:20:30.481Z,5.70
2017-07-08T11:22:57.870Z,5.03
2017-07-08T11:25:25.272Z,4.57
2017-07-08T11:27:52.668Z,5.63
2017-07-08T11:30:20.063Z,4.93
2017-07-08T11:32:47.759Z,5.40
2017-07-08T11:35:15.159Z,3.87
2017-07-08T11:37:42.551Z,4.70
2017-07-08T11:40:09.955Z,3.70
2017-07-08T11:42:37.339Z,3.80
2017-07-08T11:45:04.850Z,3.67
2017-07-08T11:47:32.231Z,3.93
2017-07-08T11:50:01.069Z,5.93
2017-07-08T11:52:28.465Z,4.47
2017-07-08T11:54:55.853Z,4.00
2017-07-08T11:57:23.247Z,3.00
2017-07-08T11:59:50.645Z,5.37
2017-07-08T12:02:18.039Z,3.17
2017-07-08T12:04:45.449Z,3.60
2017-07-08T12:07:12.844Z,4.40
2017-07-08T12:09:40.239Z,4.27
2017-07-08T12:12:07.630Z,3.60
2017-07-08T12:14:35.039Z,3.77
2017-07-08T12:17:02.432Z,3.40
2017-07-08T12:19:29.828Z,3.30
2017-07-08T12:21:57.229Z,4.17
2017-07-08T12:24:24.646Z,3.60
2017-07-08T12:26:52.040Z,3.77
2017-07-08T12:29:19.428Z,4.20
2017-07-08T12:31:46.850Z,5.80
2017-07-08T12:34:14.231Z,7.70
2017-07-08T12:36:41.631Z,7.23
2017-07-08T12:39:09.018Z,7.77
2017-07-08T12:41:36.435Z,10.93
2017-07-08T12:44:03.834Z,8.67
2017-07-08T12:46:31.232Z,7.87
2017-07-08T12:48:58.632Z,11.97
2017-07-08T12:51:26.039Z,10.10
2017-07-08T12:53:53.433Z,10.33
2017-07-08T12:56:20.832Z,9.50
2017-07-08T12:58:48.222Z,11.40
2017-07-08T13:01:15.630Z,8.90
2017-07-08T13:03:43.016Z,9.17
2017-07-08T13:06:10.463Z,8.67
2017-07-08T13:08:38.072Z,8.00
2017-07-08T13:11:05.464Z,8.33
2017-07-08T13:13:33.649Z,9.47
2017-07-08T13:16:01.285Z,9.73
2017-07-08T13:18:28.687Z,11.73
2017-07-08T13:20:56.101Z,12.80
2017-07-08T13:23:23.502Z,13.20
2017-07-08T13:25:50.901Z,9.20
2017-07-08T13:28:18.292Z,10.10
2017-07-08T13:30:45.699Z,11.10
2017-07-08T13:33:13.104Z,11.50
2017-07-08T13:35:40.512Z,11.50
2017-07-08T13:38:07.911Z,12.00
2017-07-08T13:40:35.335Z,15.03
2017-07-08T13:43:02.738Z,15.47
2017-07-08T13:45:30.154Z,16.13
2017-07-08T13:47:57.559Z,14.30
2017-07-08T13:50:24.980Z,17.33
2017-07-08T13:52:52.392Z,15.53
2017-07-08T13:55:19.788Z,11.37
2017-07-08T13:57:47.196Z,12.40
2017-07-08T14:00:14.583Z,9.27
2017-07-08T14:02:41.993Z,10.60
2017-07-08T14:05:09.385Z,9.87
2017-07-08T14:07:36.792Z,13.53
2017-07-08T14:10:04.198Z,12.53
2017-07-08T14:12:31.600Z,10.10
2017-07-08T14:14:59.014Z,10.70
2017-07-08T14:17:26.409Z,6.80
2017-07-08T14:19:53.809Z,5.60
2017-07-08T14:22:21.203Z,4.20
2017-07-08T14:24:48.624Z,4.07
2017-07-08T14:27:16.016Z,10.67
2017-07-08T14:29:43.707Z,4.73
2017-07-08T14:32:11.101Z,3.80
2017-07-08T14:34:38.500Z,3.37
2017-07-08T14:37:05.892Z,7.00
2017-07-08T14:39:33.535Z,4.83
2017-07-08T14:42:00.927Z,4.90
2017-07-08T14:44:28.317Z,5.07
2017-07-08T14:46:55.740Z,4.93
2017-07-08T14:49:23.125Z,5.70
2017-07-08T14:51:50.520Z,4.63
2017-07-08T14:54:17.916Z,5.10
2017-07-08T14:56:45.314Z,6.17
2017-07-08T14:59:12.710Z,4.90
2017-07-08T15:01:40.107Z,5.93
2017-07-08T15:04:07.558Z,4.73
2017-07-08T15:06:34.947Z,5.83
2017-07-08T15:09:02.344Z,5.37
2017-07-08T15:11:29.745Z,6.23
2017-07-08T15:16:31.059Z,5.30
2017-07-08T15:18:58.455Z,8.80
2017-07-08T15:21:25.843Z,5.13
2017-07-08T15:23:53.245Z,5.37
2017-07-08T15:26:20.632Z,4.73
2017-07-08T15:28:48.033Z,3.87
2017-07-08T15:31:15.427Z,4.13
2017-07-08T15:33:43.044Z,5.30
2017-07-08T15:36:10.664Z,5.13
2017-07-08T15:38:38.060Z,3.83
2017-07-08T15:41:05.452Z,4.83
2017-07-08T15:43:32.856Z,6.37
2017-07-08T15:46:00.246Z,5.03
2017-07-08T15:48:27.658Z,4.60
2017-07-08T15:50:55.042Z,4.93
2017-07-08T15:53:22.452Z,4.87
2017-07-08T15:55:49.828Z,3.87
2017-07-08T15:58:17.237Z,3.93
2017-07-08T16:00:44.623Z,4.40
2017-07-08T16:03:12.015Z,4.10
2017-07-08T16:05:39.412Z,4.80
2017-07-08T16:08:06.804Z,3.80
2017-07-08T16:10:34.200Z,3.57
2017-07-08T16:13:01.632Z,3.40
2017-07-08T16:15:29.027Z,4.10
2017-07-08T16:17:56.415Z,3.47
2017-07-08T16:20:23.815Z,3.57
2017-07-08T16:22:51.203Z,3.60
2017-07-08T16:25:18.602Z,4.97
2017-07-08T16:27:45.992Z,4.40
2017-07-08T16:30:13.391Z,4.10
2017-07-08T16:32:40.784Z,3.60
2017-07-08T16:35:08.176Z,9.17
2017-07-08T16:37:35.582Z,6.17
2017-07-08T16:40:02.973Z,4.53
2017-07-08T16:42:30.359Z,4.43
2017-07-08T16:44:57.976Z,4.83
2017-07-08T16:47:25.362Z,4.40
2017-07-08T16:49:52.768Z,5.30
2017-07-08T16:52:20.171Z,5.10
2017-07-08T16:54:47.566Z,5.00
2017-07-08T16:57:14.955Z,5.17
2017-07-08T16:59:42.347Z,4.70
2017-07-08T17:02:10.004Z,5.77
2017-07-08T17:04:37.402Z,4.50
2017-07-08T17:07:04.803Z,5.30
2017-07-08T17:09:32.204Z,6.30
2017-07-08T17:11:59.599Z,7.40
2017-07-08T17:14:26.995Z,6.53
2017-07-08T17:16:54.387Z,4.83
2017-07-08T17:19:21.784Z,6.03
2017-07-08T17:21:49.177Z,5.27
2017-07-08T17:24:16.572Z,5.13
2017-07-08T17:26:43.959Z,5.03
2017-07-08T17:29:11.353Z,4.90
2017-07-08T17:31:38.764Z,9.07
2017-07-08T17:34:06.351Z,5.07
2017-07-08T17:36:33.747Z,4.93
2017-07-08T17:39:01.168Z,5.20
2017-07-08T17:41:28.547Z,5.07
2017-07-08T17:43:55.936Z,4.40
2017-07-08T17:46:23.331Z,9.53
2017-07-08T17:48:50.964Z,16.23
2017-07-08T17:51:18.352Z,4.40
2017-07-08T17:53:45.743Z,5.17
2017-07-08T17:56:13.432Z,4.30
2017-07-08T17:58:40.829Z,7.40
2017-07-08T18:01:08.222Z,4.17
2017-07-08T18:03:35.605Z,6.33
2017-07-08T18:06:02.995Z,4.77
2017-07-08T18:08:30.385Z,4.90
2017-07-08T18:10:57.783Z,3.70
2017-07-08T18:13:25.173Z,6.10
2017-07-08T18:15:52.564Z,6.50
2017-07-08T18:18:19.955Z,4.07
2017-07-08T18:20:47.352Z,5.23
2017-07-08T18:23:14.747Z,4.50
2017-07-08T18:25:42.144Z,8.00
2017-07-08T18:28:09.540Z,4.60
2017-07-08T18:30:36.936Z,3.83
2017-07-08T18:33:04.363Z,6.20
2017-07-08T18:35:31.763Z,4.07
2017-07-08T18:37:59.152Z,3.93
2017-07-08T18:40:26.560Z,3.50
2017-07-08T18:42:53.955Z,7.57
2017-07-08T18:45:21.348Z,5.53
2017-07-08T18:47:48.747Z,4.33
2017-07-08T18:50:16.136Z,5.03
2017-07-08T18:52:43.527Z,9.10
2017-07-08T18:55:10.916Z,9.30
2017-07-08T18:57:38.327Z,4.30
2017-07-08T19:00:05.804Z,6.67
2017-07-08T19:02:33.186Z,4.27
2017-07-08T19:05:00.587Z,2.67
2017-07-08T19:07:27.988Z,3.73
2017-07-08T19:09:55.384Z,3.00
2017-07-08T19:12:22.786Z,4.97
2017-07-08T19:14:50.180Z,6.20
2017-07-08T19:17:17.579Z,3.53
2017-07-08T19:19:44.968Z,3.17
2017-07-08T19:22:12.363Z,3.83
2017-07-08T19:24:39.856Z,4.00
2017-07-08T19:27:07.247Z,3.53
2017-07-08T19:29:34.641Z,3.83
2017-07-08T19:32:02.036Z,3.40
2017-07-08T19:34:29.425Z,5.50
2017-07-08T19:36:56.823Z,3.53
2017-07-08T19:39:24.216Z,5.03
2017-07-08T19:41:51.615Z,3.40
2017-07-08T19:44:19.009Z,3.10
2017-07-08T19:46:46.556Z,3.97
2017-07-08T19:49:13.927Z,3.50
2017-07-08T19:51:41.325Z,7.93
2017-07-08T19:54:09.740Z,6.47
2017-07-08T19:56:37.119Z,5.00
2017-07-08T19:59:04.523Z,8.83
2017-07-08T20:01:31.914Z,3.50
2017-07-08T20:03:59.361Z,3.63
2017-07-08T20:06:26.995Z,3.60
2017-07-08T20:08:54.403Z,4.13
2017-07-08T20:11:21.799Z,8.47
2017-07-08T20:13:49.173Z,3.07
2017-07-08T20:16:16.564Z,4.03
2017-07-08T20:18:43.965Z,5.00
2017-07-08T20:21:11.367Z,2.90
2017-07-08T20:23:38.763Z,3.57
2017-07-08T20:26:06.440Z,5.90
2017-07-08T20:28:33.839Z,3.03
2017-07-08T20:31:01.232Z,5.07
2017-07-08T20:33:28.632Z,4.80
2017-07-08T20:35:56.020Z,2.73
2017-07-08T20:38:23.412Z,3.70
2017-07-08T20:40:50.807Z,4.93
2017-07-08T20:43:18.204Z,3.33
2017-07-08T20:45:45.592Z,5.73
2017-07-08T20:48:12.987Z,2.63
2017-07-08T20:50:40.391Z,3.23
2017-07-08T20:53:07.786Z,2.87
2017-07-08T20:55:35.199Z,2.67
2017-07-08T20:58:02.613Z,3.10
2017-07-08T21:00:30.004Z,2.90
2017-07-08T21:02:57.400Z,3.23
2017-07-08T21:05:25.031Z,2.33
2017-07-08T21:07:52.415Z,2.73
2017-07-08T21:10:19.817Z,2.50
2017-07-08T21:12:47.223Z,3.07
2017-07-08T21:15:14.661Z,2.83
2017-07-08T21:17:42.037Z,4.37
2017-07-08T21:20:09.437Z,4.20
2017-07-08T21:22:36.835Z,2.30
2017-07-08T21:25:04.234Z,4.60
2017-07-08T21:27:31.628Z,2.90
2017-07-08T21:29:59.286Z,5.23
2017-07-08T21:32:26.675Z,3.70
2017-07-08T21:34:54.082Z,3.57
2017-07-08T21:37:21.473Z,4.90
2017-07-08T21:39:48.858Z,2.10
2017-07-08T21:42:16.257Z,2.73
2017-07-08T21:44:43.651Z,2.57
2017-07-08T21:47:11.047Z,2.60
2017-07-08T21:49:38.454Z,12.83
2017-07-08T21:52:06.090Z,3.10
2017-07-08T21:54:33.486Z,2.50
2017-07-08T21:57:00.875Z,6.10
2017-07-08T21:59:28.280Z,2.70
2017-07-08T22:01:55.669Z,2.67
2017-07-08T22:04:23.075Z,3.23
2017-07-08T22:06:50.468Z,2.10
2017-07-08T22:09:17.863Z,4.23
2017-07-08T22:11:45.252Z,2.77
2017-07-08T22:14:12.651Z,2.40
2017-07-08T22:16:40.056Z,5.23
2017-07-08T22:19:07.447Z,10.03
2017-07-08T22:21:34.836Z,4.30
2017-07-08T22:24:02.223Z,3.17
2017-07-08T22:26:29.623Z,8.90
2017-07-08T22:28:57.011Z,2.73
2017-07-08T22:31:24.676Z,1.83
2017-07-08T22:33:52.063Z,2.10
2017-07-08T22:36:19.460Z,4.53
2017-07-08T22:38:46.853Z,2.33
2017-07-08T22:41:14.254Z,2.63
2017-07-08T22:43:41.639Z,3.50
2017-07-08T22:46:09.045Z,3.37
2017-07-08T22:48:36.428Z,5.27
2017-07-08T22:51:03.831Z,4.30
2017-07-08T22:53:31.221Z,5.03
2017-07-08T22:55:58.624Z,2.60
2017-07-08T22:58:26.016Z,4.10
2017-07-08T23:00:53.425Z,2.37
2017-07-08T23:03:20.815Z,2.40
2017-07-08T23:05:48.225Z,5.97
2017-07-08T23:08:15.611Z,4.73
2017-07-08T23:10:43.014Z,12.43
2017-07-08T23:13:10.427Z,2.23
2017-07-08T23:15:37.834Z,4.00
2017-07-08T23:18:05.222Z,2.50
2017-07-08T23:20:32.619Z,5.70
2017-07-08T23:23:00.010Z,4.10
2017-07-08T23:25:27.404Z,2.93
2017-07-08T23:27:54.803Z,10.23
2017-07-08T23:30:22.195Z,3.27
2017-07-08T23:32:49.855Z,6.50
2017-07-08T23:35:17.253Z,5.97
2017-07-08T23:37:44.650Z,5.20
2017-07-08T23:40:12.043Z,3.47
2017-07-08T23:42:39.492Z,5.63
2017-07-08T23:45:06.872Z,4.43
2017-07-08T23:47:34.267Z,6.73
2017-07-08T23:50:01.664Z,3.63
2017-07-08T23:52:29.060Z,5.63
2017-07-08T23:54:56.456Z,4.37
2017-07-08T23:57:23.850Z,6.73
2017-07-08T23:59:51.243Z,5.60
